sensor_id;sensor_type;location;lat;lon;timestamp;P1;durP1;ratioP1;P2;durP2;ratioP2
10902;SDS011;5504;47.312;11.060;2023-06-24T00:01:28;7.87;;;6.40;;
10902;SDS011;5504;47.312;11.060;2023-06-24T00:03:54;7.37;;;6.67;;
10902;SDS011;5504;47.312;11.060;2023-06-24T00:06:20;7.27;;;6.33;;
10902;SDS011;5504;47.312;11.060;2023-06-24T00:08:48;6.97;;;6.27;;
10902;SDS011;5504;47.312;11.060;2023-06-24T00:11:14;6.87;;;6.13;;
10902;SDS011;5504;47.312;11.060;2023-06-24T00:13:41;6.13;;;5.53;;
10902;SDS011;5504;47.312;11.060;2023-06-24T00:16:08;5.90;;;5.20;;
10902;SDS011;5504;47.312;11.060;2023-06-24T00:18:35;5.83;;;5.13;;
10902;SDS011;5504;47.312;11.060;2023-06-24T00:21:02;4.93;;;4.43;;
10902;SDS011;5504;47.312;11.060;2023-06-24T00:23:28;5.40;;;4.90;;
10902;SDS011;5504;47.312;11.060;2023-06-24T00:26:03;5.90;;;4.90;;
10902;SDS011;5504;47.312;11.060;2023-06-24T00:28:29;8.30;;;5.33;;
10902;SDS011;5504;47.312;11.060;2023-06-24T00:30:55;6.10;;;5.00;;
10902;SDS011;5504;47.312;11.060;2023-06-24T00:33:21;6.43;;;4.77;;
10902;SDS011;5504;47.312;11.060;2023-06-24T00:35:46;6.13;;;4.33;;
10902;SDS011;5504;47.312;11.060;2023-06-24T00:38:12;4.27;;;3.77;;
10902;SDS011;5504;47.312;11.060;2023-06-24T00:40:38;4.10;;;3.70;;
10902;SDS011;5504;47.312;11.060;2023-06-24T00:43:04;4.83;;;4.30;;
10902;SDS011;5504;47.312;11.060;2023-06-24T00:45:31;4.60;;;4.17;;
10902;SDS011;5504;47.312;11.060;2023-06-24T00:47:57;4.40;;;4.00;;
10902;SDS011;5504;47.312;11.060;2023-06-24T00:50:23;4.43;;;4.03;;
10902;SDS011;5504;47.312;11.060;2023-06-24T00:52:49;4.40;;;4.00;;
10902;SDS011;5504;47.312;11.060;2023-06-24T00:55:15;4.90;;;4.40;;
10902;SDS011;5504;47.312;11.060;2023-06-24T00:57:45;4.17;;;3.77;;
10902;SDS011;5504;47.312;11.060;2023-06-24T01:00:15;4.50;;;3.90;;
10902;SDS011;5504;47.312;11.060;2023-06-24T01:02:43;4.20;;;3.80;;
10902;SDS011;5504;47.312;11.060;2023-06-24T01:05:12;4.43;;;3.80;;
10902;SDS011;5504;47.312;11.060;2023-06-24T01:07:39;4.90;;;4.40;;
10902;SDS011;5504;47.312;11.060;2023-06-24T01:10:06;4.57;;;4.17;;
10902;SDS011;5504;47.312;11.060;2023-06-24T01:12:37;4.23;;;3.83;;
10902;SDS011;5504;47.312;11.060;2023-06-24T01:15:05;4.33;;;3.93;;
10902;SDS011;5504;47.312;11.060;2023-06-24T01:17:46;4.53;;;4.13;;
10902;SDS011;5504;47.312;11.060;2023-06-24T01:20:28;4.63;;;4.07;;
10902;SDS011;5504;47.312;11.060;2023-06-24T01:23:31;4.87;;;4.03;;
10902;SDS011;5504;47.312;11.060;2023-06-24T01:28:57;4.37;;;3.93;;
10902;SDS011;5504;47.312;11.060;2023-06-24T01:31:40;5.17;;;4.57;;
10902;SDS011;5504;47.312;11.060;2023-06-24T01:34:33;5.67;;;5.00;;
10902;SDS011;5504;47.312;11.060;2023-06-24T01:39:34;5.60;;;5.00;;
10902;SDS011;5504;47.312;11.060;2023-06-24T01:42:06;6.23;;;5.23;;
10902;SDS011;5504;47.312;11.060;2023-06-24T01:44:35;5.87;;;5.27;;
10902;SDS011;5504;47.312;11.060;2023-06-24T01:47:02;5.77;;;5.17;;
10902;SDS011;5504;47.312;11.060;2023-06-24T01:49:31;6.30;;;5.13;;
10902;SDS011;5504;47.312;11.060;2023-06-24T01:51:58;5.20;;;4.70;;
10902;SDS011;5504;47.312;11.060;2023-06-24T01:54:26;5.23;;;4.70;;
10902;SDS011;5504;47.312;11.060;2023-06-24T01:56:54;5.30;;;4.53;;
10902;SDS011;5504;47.312;11.060;2023-06-24T01:59:21;4.90;;;4.40;;
10902;SDS011;5504;47.312;11.060;2023-06-24T02:01:48;5.00;;;4.03;;
10902;SDS011;5504;47.312;11.060;2023-06-24T02:04:16;4.30;;;3.90;;
10902;SDS011;5504;47.312;11.060;2023-06-24T02:06:43;4.37;;;3.87;;
10902;SDS011;5504;47.312;11.060;2023-06-24T02:09:10;4.00;;;3.60;;
10902;SDS011;5504;47.312;11.060;2023-06-24T02:11:36;3.80;;;3.50;;
10902;SDS011;5504;47.312;11.060;2023-06-24T02:14:03;4.03;;;3.63;;
10902;SDS011;5504;47.312;11.060;2023-06-24T02:16:31;4.97;;;3.77;;
10902;SDS011;5504;47.312;11.060;2023-06-24T02:18:58;4.40;;;4.00;;
10902;SDS011;5504;47.312;11.060;2023-06-24T02:21:25;4.90;;;3.80;;
10902;SDS011;5504;47.312;11.060;2023-06-24T02:23:51;4.10;;;3.70;;
10902;SDS011;5504;47.312;11.060;2023-06-24T02:26:18;3.93;;;3.57;;
10902;SDS011;5504;47.312;11.060;2023-06-24T02:28:44;3.80;;;3.50;;
10902;SDS011;5504;47.312;11.060;2023-06-24T02:31:11;3.83;;;3.43;;
10902;SDS011;5504;47.312;11.060;2023-06-24T02:33:38;3.90;;;3.50;;
10902;SDS011;5504;47.312;11.060;2023-06-24T02:36:04;4.10;;;3.70;;
10902;SDS011;5504;47.312;11.060;2023-06-24T02:38:30;4.30;;;3.90;;
10902;SDS011;5504;47.312;11.060;2023-06-24T02:40:56;4.13;;;3.73;;
10902;SDS011;5504;47.312;11.060;2023-06-24T02:43:22;4.93;;;3.80;;
10902;SDS011;5504;47.312;11.060;2023-06-24T02:45:48;4.60;;;4.10;;
10902;SDS011;5504;47.312;11.060;2023-06-24T02:48:15;4.80;;;3.97;;
10902;SDS011;5504;47.312;11.060;2023-06-24T02:50:42;4.40;;;4.00;;
10902;SDS011;5504;47.312;11.060;2023-06-24T02:53:10;4.33;;;3.93;;
10902;SDS011;5504;47.312;11.060;2023-06-24T02:55:37;4.70;;;3.90;;
10902;SDS011;5504;47.312;11.060;2023-06-24T02:58:05;4.90;;;3.60;;
10902;SDS011;5504;47.312;11.060;2023-06-24T03:00:33;4.70;;;4.20;;
10902;SDS011;5504;47.312;11.060;2023-06-24T03:03:02;4.53;;;4.10;;
10902;SDS011;5504;47.312;11.060;2023-06-24T03:05:30;4.27;;;3.87;;
10902;SDS011;5504;47.312;11.060;2023-06-24T03:07:57;4.43;;;4.03;;
10902;SDS011;5504;47.312;11.060;2023-06-24T03:10:24;4.90;;;4.40;;
10902;SDS011;5504;47.312;11.060;2023-06-24T03:12:53;5.90;;;5.30;;
10902;SDS011;5504;47.312;11.060;2023-06-24T03:15:19;4.60;;;4.20;;
10902;SDS011;5504;47.312;11.060;2023-06-24T03:17:44;5.57;;;4.77;;
10902;SDS011;5504;47.312;11.060;2023-06-24T03:20:10;5.70;;;5.20;;
10902;SDS011;5504;47.312;11.060;2023-06-24T03:22:36;5.77;;;5.17;;
10902;SDS011;5504;47.312;11.060;2023-06-24T03:25:02;6.20;;;5.60;;
10902;SDS011;5504;47.312;11.060;2023-06-24T03:27:28;5.43;;;4.57;;
10902;SDS011;5504;47.312;11.060;2023-06-24T03:29:53;4.20;;;3.80;;
10902;SDS011;5504;47.312;11.060;2023-06-24T03:32:19;5.57;;;4.77;;
10902;SDS011;5504;47.312;11.060;2023-06-24T03:34:45;4.90;;;4.40;;
10902;SDS011;5504;47.312;11.060;2023-06-24T03:37:11;4.63;;;4.23;;
10902;SDS011;5504;47.312;11.060;2023-06-24T03:39:36;5.17;;;4.33;;
10902;SDS011;5504;47.312;11.060;2023-06-24T03:42:02;5.03;;;4.53;;
10902;SDS011;5504;47.312;11.060;2023-06-24T03:44:28;4.67;;;4.27;;
10902;SDS011;5504;47.312;11.060;2023-06-24T03:46:54;5.03;;;4.53;;
10902;SDS011;5504;47.312;11.060;2023-06-24T03:49:19;5.93;;;4.67;;
10902;SDS011;5504;47.312;11.060;2023-06-24T03:51:45;5.30;;;4.80;;
10902;SDS011;5504;47.312;11.060;2023-06-24T03:54:11;5.53;;;5.03;;
10902;SDS011;5504;47.312;11.060;2023-06-24T03:56:36;5.50;;;5.00;;
10902;SDS011;5504;47.312;11.060;2023-06-24T03:59:02;5.17;;;4.67;;
10902;SDS011;5504;47.312;11.060;2023-06-24T04:01:28;5.13;;;4.27;;
10902;SDS011;5504;47.312;11.060;2023-06-24T04:03:57;6.63;;;5.40;;
10902;SDS011;5504;47.312;11.060;2023-06-24T04:06:23;5.60;;;5.00;;
10902;SDS011;5504;47.312;11.060;2023-06-24T04:08:49;6.03;;;4.57;;
10902;SDS011;5504;47.312;11.060;2023-06-24T04:11:17;5.23;;;4.60;;
10902;SDS011;5504;47.312;11.060;2023-06-24T04:13:43;5.50;;;4.80;;
10902;SDS011;5504;47.312;11.060;2023-06-24T04:16:10;4.83;;;4.33;;
10902;SDS011;5504;47.312;11.060;2023-06-24T04:18:36;5.20;;;4.60;;
10902;SDS011;5504;47.312;11.060;2023-06-24T04:21:04;5.03;;;4.53;;
10902;SDS011;5504;47.312;11.060;2023-06-24T04:23:31;5.20;;;4.70;;
10902;SDS011;5504;47.312;11.060;2023-06-24T04:25:58;5.20;;;4.70;;
10902;SDS011;5504;47.312;11.060;2023-06-24T04:28:23;5.07;;;4.57;;
10902;SDS011;5504;47.312;11.060;2023-06-24T04:30:49;5.10;;;4.53;;
10902;SDS011;5504;47.312;11.060;2023-06-24T04:33:15;5.07;;;4.33;;
10902;SDS011;5504;47.312;11.060;2023-06-24T04:35:41;6.20;;;5.27;;
10902;SDS011;5504;47.312;11.060;2023-06-24T04:38:08;5.20;;;4.70;;
10902;SDS011;5504;47.312;11.060;2023-06-24T04:40:34;5.00;;;4.50;;
10902;SDS011;5504;47.312;11.060;2023-06-24T04:42:59;5.30;;;4.80;;
10902;SDS011;5504;47.312;11.060;2023-06-24T04:45:25;5.57;;;5.00;;
10902;SDS011;5504;47.312;11.060;2023-06-24T04:47:52;5.60;;;5.00;;
10902;SDS011;5504;47.312;11.060;2023-06-24T04:50:18;5.00;;;4.57;;
10902;SDS011;5504;47.312;11.060;2023-06-24T04:52:43;5.10;;;4.60;;
10902;SDS011;5504;47.312;11.060;2023-06-24T04:55:09;5.20;;;4.47;;
10902;SDS011;5504;47.312;11.060;2023-06-24T04:57:35;5.23;;;4.53;;
10902;SDS011;5504;47.312;11.060;2023-06-24T05:00:01;5.80;;;4.60;;
10902;SDS011;5504;47.312;11.060;2023-06-24T05:02:27;5.20;;;4.70;;
10902;SDS011;5504;47.312;11.060;2023-06-24T05:04:53;4.47;;;4.03;;
10902;SDS011;5504;47.312;11.060;2023-06-24T05:07:19;4.50;;;4.10;;
10902;SDS011;5504;47.312;11.060;2023-06-24T05:09:46;5.10;;;4.60;;
10902;SDS011;5504;47.312;11.060;2023-06-24T05:12:12;4.67;;;4.27;;
10902;SDS011;5504;47.312;11.060;2023-06-24T05:14:38;5.00;;;4.50;;
10902;SDS011;5504;47.312;11.060;2023-06-24T05:17:03;4.30;;;3.90;;
10902;SDS011;5504;47.312;11.060;2023-06-24T05:19:29;4.77;;;4.27;;
10902;SDS011;5504;47.312;11.060;2023-06-24T05:21:55;4.77;;;4.37;;
10902;SDS011;5504;47.312;11.060;2023-06-24T05:24:21;5.87;;;4.50;;
10902;SDS011;5504;47.312;11.060;2023-06-24T05:26:48;4.43;;;4.03;;
10902;SDS011;5504;47.312;11.060;2023-06-24T05:29:15;4.90;;;4.23;;
10902;SDS011;5504;47.312;11.060;2023-06-24T05:31:41;4.60;;;4.20;;
10902;SDS011;5504;47.312;11.060;2023-06-24T05:34:08;4.97;;;4.53;;
10902;SDS011;5504;47.312;11.060;2023-06-24T05:36:33;5.30;;;4.80;;
10902;SDS011;5504;47.312;11.060;2023-06-24T05:38:59;5.50;;;5.00;;
10902;SDS011;5504;47.312;11.060;2023-06-24T05:41:25;5.23;;;4.73;;
10902;SDS011;5504;47.312;11.060;2023-06-24T05:44:12;5.03;;;4.63;;
10902;SDS011;5504;47.312;11.060;2023-06-24T05:46:37;5.10;;;4.47;;
10902;SDS011;5504;47.312;11.060;2023-06-24T05:49:03;5.43;;;4.53;;
10902;SDS011;5504;47.312;11.060;2023-06-24T05:51:28;4.40;;;4.00;;
10902;SDS011;5504;47.312;11.060;2023-06-24T05:53:54;4.37;;;3.97;;
10902;SDS011;5504;47.312;11.060;2023-06-24T05:56:21;4.40;;;4.00;;
10902;SDS011;5504;47.312;11.060;2023-06-24T05:58:47;4.40;;;4.00;;
10902;SDS011;5504;47.312;11.060;2023-06-24T06:01:13;4.50;;;4.10;;
10902;SDS011;5504;47.312;11.060;2023-06-24T06:03:39;4.70;;;4.30;;
10902;SDS011;5504;47.312;11.060;2023-06-24T06:06:05;3.83;;;3.53;;
10902;SDS011;5504;47.312;11.060;2023-06-24T06:08:32;4.67;;;4.07;;
10902;SDS011;5504;47.312;11.060;2023-06-24T06:10:58;4.00;;;3.60;;
10902;SDS011;5504;47.312;11.060;2023-06-24T06:13:24;5.13;;;4.20;;
10902;SDS011;5504;47.312;11.060;2023-06-24T06:15:49;4.90;;;3.80;;
10902;SDS011;5504;47.312;11.060;2023-06-24T06:18:15;5.33;;;3.90;;
10902;SDS011;5504;47.312;11.060;2023-06-24T06:20:41;3.93;;;3.53;;
10902;SDS011;5504;47.312;11.060;2023-06-24T06:23:06;3.97;;;3.67;;
10902;SDS011;5504;47.312;11.060;2023-06-24T06:25:32;4.23;;;3.87;;
10902;SDS011;5504;47.312;11.060;2023-06-24T06:27:58;4.50;;;4.10;;
10902;SDS011;5504;47.312;11.060;2023-06-24T06:30:24;4.47;;;4.10;;
10902;SDS011;5504;47.312;11.060;2023-06-24T06:32:49;4.50;;;4.10;;
10902;SDS011;5504;47.312;11.060;2023-06-24T06:35:15;4.30;;;3.90;;
10902;SDS011;5504;47.312;11.060;2023-06-24T06:37:41;4.67;;;4.23;;
10902;SDS011;5504;47.312;11.060;2023-06-24T06:40:06;4.40;;;4.00;;
10902;SDS011;5504;47.312;11.060;2023-06-24T06:42:33;3.47;;;3.17;;
10902;SDS011;5504;47.312;11.060;2023-06-24T06:44:58;3.77;;;3.47;;
10902;SDS011;5504;47.312;11.060;2023-06-24T06:47:24;6.47;;;3.70;;
10902;SDS011;5504;47.312;11.060;2023-06-24T06:49:49;3.93;;;3.43;;
10902;SDS011;5504;47.312;11.060;2023-06-24T06:52:15;3.90;;;3.60;;
10902;SDS011;5504;47.312;11.060;2023-06-24T06:54:41;3.67;;;3.33;;
10902;SDS011;5504;47.312;11.060;2023-06-24T06:57:06;3.70;;;3.40;;
10902;SDS011;5504;47.312;11.060;2023-06-24T06:59:32;3.67;;;3.33;;
10902;SDS011;5504;47.312;11.060;2023-06-24T07:01:58;4.23;;;3.53;;
10902;SDS011;5504;47.312;11.060;2023-06-24T07:04:24;3.60;;;3.00;;
10902;SDS011;5504;47.312;11.060;2023-06-24T07:06:50;3.13;;;2.93;;
10902;SDS011;5504;47.312;11.060;2023-06-24T07:09:15;3.88;;;3.22;;
10902;SDS011;5504;47.312;11.060;2023-06-24T07:11:42;3.15;;;2.95;;
10902;SDS011;5504;47.312;11.060;2023-06-24T07:14:07;3.30;;;3.00;;
10902;SDS011;5504;47.312;11.060;2023-06-24T07:16:33;3.50;;;3.20;;
10902;SDS011;5504;47.312;11.060;2023-06-24T07:18:59;3.17;;;2.97;;
10902;SDS011;5504;47.312;11.060;2023-06-24T07:21:25;3.20;;;2.90;;
10902;SDS011;5504;47.312;11.060;2023-06-24T07:23:50;3.42;;;2.97;;
10902;SDS011;5504;47.312;11.060;2023-06-24T07:26:16;3.35;;;3.05;;
10902;SDS011;5504;47.312;11.060;2023-06-24T07:28:41;3.25;;;2.95;;
10902;SDS011;5504;47.312;11.060;2023-06-24T07:31:07;4.15;;;3.10;;
10902;SDS011;5504;47.312;11.060;2023-06-24T07:33:33;3.72;;;3.35;;
10902;SDS011;5504;47.312;11.060;2023-06-24T07:35:59;3.30;;;3.00;;
10902;SDS011;5504;47.312;11.060;2023-06-24T07:38:25;3.45;;;3.15;;
10902;SDS011;5504;47.312;11.060;2023-06-24T07:40:53;3.20;;;2.90;;
10902;SDS011;5504;47.312;11.060;2023-06-24T07:43:19;2.80;;;2.60;;
10902;SDS011;5504;47.312;11.060;2023-06-24T07:45:44;3.83;;;2.92;;
10902;SDS011;5504;47.312;11.060;2023-06-24T07:48:10;3.20;;;2.90;;
10902;SDS011;5504;47.312;11.060;2023-06-24T07:50:37;3.05;;;2.80;;
10902;SDS011;5504;47.312;11.060;2023-06-24T07:53:04;2.90;;;2.70;;
10902;SDS011;5504;47.312;11.060;2023-06-24T07:55:30;3.38;;;2.75;;
10902;SDS011;5504;47.312;11.060;2023-06-24T07:57:55;3.20;;;2.90;;
10902;SDS011;5504;47.312;11.060;2023-06-24T08:00:23;2.97;;;2.55;;
10902;SDS011;5504;47.312;11.060;2023-06-24T08:02:49;3.50;;;2.85;;
10902;SDS011;5504;47.312;11.060;2023-06-24T08:05:15;3.67;;;2.42;;
10902;SDS011;5504;47.312;11.060;2023-06-24T08:07:43;3.42;;;2.78;;
10902;SDS011;5504;47.312;11.060;2023-06-24T08:10:09;3.45;;;2.90;;
10902;SDS011;5504;47.312;11.060;2023-06-24T08:12:35;2.85;;;2.65;;
10902;SDS011;5504;47.312;11.060;2023-06-24T08:15:01;2.63;;;2.42;;
10902;SDS011;5504;47.312;11.060;2023-06-24T08:17:26;3.28;;;2.70;;
10902;SDS011;5504;47.312;11.060;2023-06-24T08:19:52;2.67;;;2.47;;
10902;SDS011;5504;47.312;11.060;2023-06-24T08:22:18;2.58;;;2.38;;
10902;SDS011;5504;47.312;11.060;2023-06-24T08:24:43;3.13;;;2.83;;
10902;SDS011;5504;47.312;11.060;2023-06-24T08:27:09;2.95;;;2.65;;
10902;SDS011;5504;47.312;11.060;2023-06-24T08:29:35;2.72;;;2.40;;
10902;SDS011;5504;47.312;11.060;2023-06-24T08:32:02;2.53;;;2.33;;
10902;SDS011;5504;47.312;11.060;2023-06-24T08:34:29;2.22;;;2.10;;
10902;SDS011;5504;47.312;11.060;2023-06-24T08:36:55;3.10;;;2.70;;
10902;SDS011;5504;47.312;11.060;2023-06-24T08:39:20;3.20;;;2.90;;
10902;SDS011;5504;47.312;11.060;2023-06-24T08:41:46;3.05;;;2.80;;
10902;SDS011;5504;47.312;11.060;2023-06-24T08:44:12;2.97;;;2.67;;
10902;SDS011;5504;47.312;11.060;2023-06-24T08:46:37;2.97;;;2.75;;
10902;SDS011;5504;47.312;11.060;2023-06-24T08:49:10;3.33;;;3.03;;
10902;SDS011;5504;47.312;11.060;2023-06-24T08:51:39;2.53;;;2.30;;
10902;SDS011;5504;47.312;11.060;2023-06-24T08:54:07;3.00;;;2.70;;
10902;SDS011;5504;47.312;11.060;2023-06-24T08:56:35;2.50;;;2.30;;
10902;SDS011;5504;47.312;11.060;2023-06-24T08:59:04;2.75;;;2.55;;
10902;SDS011;5504;47.312;11.060;2023-06-24T09:01:31;3.00;;;2.70;;
10902;SDS011;5504;47.312;11.060;2023-06-24T09:03:56;2.63;;;2.42;;
10902;SDS011;5504;47.312;11.060;2023-06-24T09:06:22;3.17;;;2.78;;
10902;SDS011;5504;47.312;11.060;2023-06-24T09:08:54;2.70;;;2.50;;
10902;SDS011;5504;47.312;11.060;2023-06-24T09:11:24;3.00;;;2.80;;
10902;SDS011;5504;47.312;11.060;2023-06-24T09:13:55;3.20;;;2.90;;
10902;SDS011;5504;47.312;11.060;2023-06-24T09:16:25;3.08;;;2.78;;
10902;SDS011;5504;47.312;11.060;2023-06-24T09:18:51;3.05;;;2.80;;
10902;SDS011;5504;47.312;11.060;2023-06-24T09:21:27;3.17;;;2.47;;
10902;SDS011;5504;47.312;11.060;2023-06-24T09:23:56;3.00;;;2.80;;
10902;SDS011;5504;47.312;11.060;2023-06-24T09:26:23;3.95;;;3.60;;
10902;SDS011;5504;47.312;11.060;2023-06-24T09:28:49;2.85;;;2.65;;
10902;SDS011;5504;47.312;11.060;2023-06-24T09:31:15;2.67;;;2.47;;
10902;SDS011;5504;47.312;11.060;2023-06-24T09:33:41;2.50;;;2.30;;
10902;SDS011;5504;47.312;11.060;2023-06-24T09:36:11;3.40;;;2.40;;
10902;SDS011;5504;47.312;11.060;2023-06-24T09:38:38;2.60;;;2.40;;
10902;SDS011;5504;47.312;11.060;2023-06-24T09:41:06;2.58;;;2.30;;
10902;SDS011;5504;47.312;11.060;2023-06-24T09:43:36;2.85;;;2.50;;
10902;SDS011;5504;47.312;11.060;2023-06-24T09:46:05;2.55;;;2.35;;
10902;SDS011;5504;47.312;11.060;2023-06-24T09:48:31;2.40;;;2.20;;
10902;SDS011;5504;47.312;11.060;2023-06-24T09:51:07;3.08;;;2.40;;
10902;SDS011;5504;47.312;11.060;2023-06-24T09:53:34;3.40;;;2.78;;
10902;SDS011;5504;47.312;11.060;2023-06-24T09:56:01;2.50;;;2.30;;
10902;SDS011;5504;47.312;11.060;2023-06-24T09:58:28;2.88;;;2.55;;
10902;SDS011;5504;47.312;11.060;2023-06-24T10:01:02;2.65;;;2.45;;
10902;SDS011;5504;47.312;11.060;2023-06-24T10:03:29;2.97;;;2.70;;
10902;SDS011;5504;47.312;11.060;2023-06-24T10:05:59;2.70;;;2.50;;
10902;SDS011;5504;47.312;11.060;2023-06-24T10:08:26;2.90;;;2.70;;
10902;SDS011;5504;47.312;11.060;2023-06-24T10:10:53;3.20;;;2.42;;
10902;SDS011;5504;47.312;11.060;2023-06-24T10:13:19;2.75;;;2.50;;
10902;SDS011;5504;47.312;11.060;2023-06-24T10:15:45;2.50;;;2.25;;
10902;SDS011;5504;47.312;11.060;2023-06-24T10:21:10;2.78;;;2.58;;
10902;SDS011;5504;47.312;11.060;2023-06-24T10:23:40;2.80;;;2.60;;
10902;SDS011;5504;47.312;11.060;2023-06-24T10:36:56;2.88;;;2.55;;
10902;SDS011;5504;47.312;11.060;2023-06-24T10:47:36;3.22;;;2.92;;
10902;SDS011;5504;47.312;11.060;2023-06-24T10:50:12;2.58;;;2.38;;
10902;SDS011;5504;47.312;11.060;2023-06-24T10:52:40;2.92;;;2.72;;
10902;SDS011;5504;47.312;11.060;2023-06-24T10:55:07;3.17;;;2.90;;
10902;SDS011;5504;47.312;11.060;2023-06-24T10:57:34;3.97;;;2.72;;
10902;SDS011;5504;47.312;11.060;2023-06-24T11:00:00;2.63;;;2.42;;
10902;SDS011;5504;47.312;11.060;2023-06-24T11:02:28;3.10;;;2.80;;
10902;SDS011;5504;47.312;11.060;2023-06-24T11:07:21;2.75;;;2.55;;
10902;SDS011;5504;47.312;11.060;2023-06-24T11:09:51;3.10;;;2.70;;
10902;SDS011;5504;47.312;11.060;2023-06-24T11:12:18;2.92;;;2.72;;
10902;SDS011;5504;47.312;11.060;2023-06-24T11:14:48;2.88;;;2.67;;
10902;SDS011;5504;47.312;11.060;2023-06-24T11:17:14;3.08;;;2.28;;
10902;SDS011;5504;47.312;11.060;2023-06-24T11:19:39;2.70;;;2.50;;
10902;SDS011;5504;47.312;11.060;2023-06-24T11:22:06;3.13;;;2.85;;
10902;SDS011;5504;47.312;11.060;2023-06-24T11:24:33;3.15;;;2.85;;
10902;SDS011;5504;47.312;11.060;2023-06-24T11:26:59;2.67;;;2.47;;
10902;SDS011;5504;47.312;11.060;2023-06-24T11:29:28;3.00;;;2.75;;
10902;SDS011;5504;47.312;11.060;2023-06-24T11:31:58;3.20;;;2.53;;
10902;SDS011;5504;47.312;11.060;2023-06-24T11:34:24;3.20;;;2.90;;
10902;SDS011;5504;47.312;11.060;2023-06-24T11:36:50;3.20;;;2.90;;
10902;SDS011;5504;47.312;11.060;2023-06-24T11:39:22;3.17;;;2.83;;
10902;SDS011;5504;47.312;11.060;2023-06-24T11:41:53;2.90;;;2.60;;
10902;SDS011;5504;47.312;11.060;2023-06-24T11:44:25;2.63;;;2.42;;
10902;SDS011;5504;47.312;11.060;2023-06-24T11:46:51;2.72;;;2.53;;
10902;SDS011;5504;47.312;11.060;2023-06-24T11:49:17;2.97;;;2.70;;
10902;SDS011;5504;47.312;11.060;2023-06-24T11:51:47;3.17;;;2.88;;
10902;SDS011;5504;47.312;11.060;2023-06-24T11:54:15;2.85;;;2.65;;
10902;SDS011;5504;47.312;11.060;2023-06-24T11:56:42;2.60;;;2.38;;
10902;SDS011;5504;47.312;11.060;2023-06-24T11:59:16;2.80;;;2.60;;
10902;SDS011;5504;47.312;11.060;2023-06-24T12:01:55;2.80;;;2.60;;
10902;SDS011;5504;47.312;11.060;2023-06-24T12:04:29;3.67;;;2.58;;
10902;SDS011;5504;47.312;11.060;2023-06-24T12:06:56;3.78;;;2.97;;
10902;SDS011;5504;47.312;11.060;2023-06-24T12:09:22;3.08;;;2.83;;
10902;SDS011;5504;47.312;11.060;2023-06-24T12:11:48;2.75;;;2.55;;
10902;SDS011;5504;47.312;11.060;2023-06-24T12:14:13;2.60;;;2.33;;
10902;SDS011;5504;47.312;11.060;2023-06-24T12:16:39;4.32;;;2.67;;
10902;SDS011;5504;47.312;11.060;2023-06-24T12:19:06;2.78;;;2.58;;
10902;SDS011;5504;47.312;11.060;2023-06-24T12:21:32;3.88;;;2.70;;
10902;SDS011;5504;47.312;11.060;2023-06-24T12:23:58;2.50;;;2.30;;
10902;SDS011;5504;47.312;11.060;2023-06-24T12:26:24;3.55;;;2.97;;
10902;SDS011;5504;47.312;11.060;2023-06-24T12:28:49;2.88;;;2.60;;
10902;SDS011;5504;47.312;11.060;2023-06-24T12:31:15;2.75;;;2.55;;
10902;SDS011;5504;47.312;11.060;2023-06-24T12:33:41;2.70;;;2.50;;
10902;SDS011;5504;47.312;11.060;2023-06-24T12:36:06;3.28;;;2.45;;
10902;SDS011;5504;47.312;11.060;2023-06-24T12:38:32;2.80;;;2.60;;
10902;SDS011;5504;47.312;11.060;2023-06-24T12:40:58;3.78;;;2.70;;
10902;SDS011;5504;47.312;11.060;2023-06-24T12:43:23;3.30;;;2.50;;
10902;SDS011;5504;47.312;11.060;2023-06-24T12:45:49;2.85;;;2.60;;
10902;SDS011;5504;47.312;11.060;2023-06-24T12:48:16;2.85;;;2.55;;
10902;SDS011;5504;47.312;11.060;2023-06-24T12:50:42;3.08;;;2.75;;
10902;SDS011;5504;47.312;11.060;2023-06-24T12:53:08;3.78;;;2.47;;
10902;SDS011;5504;47.312;11.060;2023-06-24T12:55:35;2.67;;;2.47;;
10902;SDS011;5504;47.312;11.060;2023-06-24T12:58:01;2.75;;;2.55;;
10902;SDS011;5504;47.312;11.060;2023-06-24T13:00:27;3.35;;;2.60;;
10902;SDS011;5504;47.312;11.060;2023-06-24T13:02:53;3.03;;;2.72;;
10902;SDS011;5504;47.312;11.060;2023-06-24T13:05:18;3.05;;;2.75;;
10902;SDS011;5504;47.312;11.060;2023-06-24T13:07:44;3.30;;;2.80;;
10902;SDS011;5504;47.312;11.060;2023-06-24T13:10:10;2.78;;;2.58;;
10902;SDS011;5504;47.312;11.060;2023-06-24T13:12:36;2.70;;;2.50;;
10902;SDS011;5504;47.312;11.060;2023-06-24T13:15:05;3.00;;;2.70;;
10902;SDS011;5504;47.312;11.060;2023-06-24T13:17:31;3.28;;;2.78;;
10902;SDS011;5504;47.312;11.060;2023-06-24T13:19:57;5.55;;;3.22;;
10902;SDS011;5504;47.312;11.060;2023-06-24T13:22:23;3.10;;;2.75;;
10902;SDS011;5504;47.312;11.060;2023-06-24T13:24:49;3.50;;;2.80;;
10902;SDS011;5504;47.312;11.060;2023-06-24T13:27:15;3.45;;;2.80;;
10902;SDS011;5504;47.312;11.060;2023-06-24T13:29:41;3.33;;;3.03;;
10902;SDS011;5504;47.312;11.060;2023-06-24T13:32:08;3.28;;;2.97;;
10902;SDS011;5504;47.312;11.060;2023-06-24T13:34:34;3.22;;;2.90;;
10902;SDS011;5504;47.312;11.060;2023-06-24T13:37:00;3.13;;;2.85;;
10902;SDS011;5504;47.312;11.060;2023-06-24T13:39:26;3.30;;;3.00;;
10902;SDS011;5504;47.312;11.060;2023-06-24T13:41:52;3.22;;;2.92;;
10902;SDS011;5504;47.312;11.060;2023-06-24T13:44:18;3.05;;;2.60;;
10902;SDS011;5504;47.312;11.060;2023-06-24T13:46:44;3.15;;;2.85;;
10902;SDS011;5504;47.312;11.060;2023-06-24T13:49:10;3.47;;;3.10;;
10902;SDS011;5504;47.312;11.060;2023-06-24T13:51:36;3.17;;;2.88;;
10902;SDS011;5504;47.312;11.060;2023-06-24T13:54:01;3.67;;;3.10;;
10902;SDS011;5504;47.312;11.060;2023-06-24T13:56:27;3.13;;;2.80;;
10902;SDS011;5504;47.312;11.060;2023-06-24T13:58:54;3.38;;;3.00;;
10902;SDS011;5504;47.312;11.060;2023-06-24T14:01:21;4.30;;;3.90;;
10902;SDS011;5504;47.312;11.060;2023-06-24T14:03:47;3.72;;;3.35;;
10902;SDS011;5504;47.312;11.060;2023-06-24T14:06:13;3.03;;;2.80;;
10902;SDS011;5504;47.312;11.060;2023-06-24T14:08:41;3.08;;;2.67;;
10902;SDS011;5504;47.312;11.060;2023-06-24T14:11:07;3.75;;;2.65;;
10902;SDS011;5504;47.312;11.060;2023-06-24T14:13:33;3.33;;;2.78;;
10902;SDS011;5504;47.312;11.060;2023-06-24T14:15:58;3.92;;;2.92;;
10902;SDS011;5504;47.312;11.060;2023-06-24T14:18:24;6.38;;;5.57;;
10902;SDS011;5504;47.312;11.060;2023-06-24T14:20:50;5.68;;;4.63;;
10902;SDS011;5504;47.312;11.060;2023-06-24T14:23:16;3.08;;;2.60;;
10902;SDS011;5504;47.312;11.060;2023-06-24T14:25:43;2.90;;;2.67;;
10902;SDS011;5504;47.312;11.060;2023-06-24T14:28:08;3.25;;;2.65;;
10902;SDS011;5504;47.312;11.060;2023-06-24T14:30:34;2.92;;;2.70;;
10902;SDS011;5504;47.312;11.060;2023-06-24T14:33:00;3.80;;;2.78;;
10902;SDS011;5504;47.312;11.060;2023-06-24T14:35:26;4.15;;;2.95;;
10902;SDS011;5504;47.312;11.060;2023-06-24T14:37:52;2.72;;;2.53;;
10902;SDS011;5504;47.312;11.060;2023-06-24T14:40:18;3.17;;;2.67;;
10902;SDS011;5504;47.312;11.060;2023-06-24T14:42:44;3.35;;;3.05;;
10902;SDS011;5504;47.312;11.060;2023-06-24T14:45:09;2.72;;;2.53;;
10902;SDS011;5504;47.312;11.060;2023-06-24T14:47:35;3.30;;;3.00;;
10902;SDS011;5504;47.312;11.060;2023-06-24T14:50:02;3.17;;;2.80;;
10902;SDS011;5504;47.312;11.060;2023-06-24T14:52:28;3.15;;;2.85;;
10902;SDS011;5504;47.312;11.060;2023-06-24T14:54:54;3.00;;;2.80;;
10902;SDS011;5504;47.312;11.060;2023-06-24T14:57:20;3.47;;;2.80;;
10902;SDS011;5504;47.312;11.060;2023-06-24T14:59:48;3.05;;;2.70;;
10902;SDS011;5504;47.312;11.060;2023-06-24T15:02:14;3.78;;;3.00;;
10902;SDS011;5504;47.312;11.060;2023-06-24T15:04:40;2.92;;;2.60;;
10902;SDS011;5504;47.312;11.060;2023-06-24T15:07:06;4.20;;;2.90;;
10902;SDS011;5504;47.312;11.060;2023-06-24T15:09:32;2.92;;;2.72;;
10902;SDS011;5504;47.312;11.060;2023-06-24T15:11:59;3.10;;;2.80;;
10902;SDS011;5504;47.312;11.060;2023-06-24T15:14:25;2.80;;;2.60;;
10902;SDS011;5504;47.312;11.060;2023-06-24T15:16:51;2.63;;;2.42;;